• Join FlightAware (Why Join?)
  • Login
  • US Flag 
06:18AM EDT


 

Airport Tracker/Info


-or-


 

Live Flight TrackerFlight Track Log ✈ EJA922 ✈ 22-Aug-2013 ✈ KGPI - KMSP

Flight Track Log - Related Links

Times and Time Zones

All times are in EDT time to prevent confusion due to time zone crossing. See the EJA922 flight status page for this flight to view local times or setup timezone preferences in your user account.

Time Position Orientation Groundspeed Altitude Reporting Facility
EDT Latitude Longitude Course Direction KTS MPH feet Rate Location/Type
12:59PM 48.3283 -114.2339 116° Southeast 204 235 4,300  Level Salt Lake Center
01:00PM 48.3100 -114.1528 109° East 225 259 8,200 3,480 Climbing Salt Lake Center
01:01PM 48.2881 -114.0442 107° East 253 291 11,500 2,700 Climbing Salt Lake Center
01:02PM 48.0348 -113.3216 114° Southeast  Level FlightAware Approximate
01:02PM 48.2450 -113.9122 116° Southeast 315 362 13,800  Level Salt Lake Center
01:03PM 47.9795 -113.1375 115° Southeast  Level FlightAware Approximate
01:04PM 47.9231 -112.9542 115° Southeast  Level FlightAware Approximate
01:04PM 48.1994 -113.7636 115° Southeast 375 432 15,900  Level Salt Lake Center
01:05PM 47.8635 -112.7736 116° Southeast  Level FlightAware Approximate
01:05PM 48.1522 -113.6089 115° Southeast 402 463 17,900  Level Salt Lake Center
01:06PM 48.1003 -113.4153 112° Southeast 416 479 20,300 1,860 Climbing Salt Lake Center
01:07PM 48.0825 -113.2383 98° East 428 493 21,800 1,560 Climbing Salt Lake Center
01:08PM 48.0622 -113.0569 99° East 441 507 23,600 1,500 Climbing Salt Lake Center
01:09PM 48.0417 -112.8756 100° East 446 513 25,000 1,380 Climbing Salt Lake Center
01:10PM 48.0203 -112.6867 100° East 459 528 26,500 1,320 Climbing Salt Lake Center
01:11PM 47.9928 -112.4611 100° East 471 542 27,800 1,260 Climbing Salt Lake Center
01:12PM 47.9697 -112.2628 100° East 482 555 29,200 1,260 Climbing Salt Lake Center
01:13PM 47.9453 -112.0622 100° East 488 562 30,500 1,380 Climbing Salt Lake Center
01:14PM 47.9208 -111.8597 100° East 495 570 32,100 1,560 Climbing Salt Lake Center
01:15PM 47.8950 -111.6561 101° East 496 571 33,800 1,920 Climbing Salt Lake Center
01:16PM 47.8706 -111.4553 100° East 493 567 36,100 1,980 Climbing Salt Lake Center
01:17PM 47.8464 -111.2564 100° East 487 560 38,000 1,680 Climbing Salt Lake Center
01:18PM 47.8189 -111.0533 101° East 492 566 39,600 1,380 Climbing Salt Lake Center
01:19PM 47.7922 -110.8506 101° East 495 570 40,900 660 Climbing Salt Lake Center
01:20PM 47.7594 -110.6000 101° East 511 588 41,000  Climbing Salt Lake Center
01:21PM 47.7281 -110.3800 102° East 534 615 41,000  Level Salt Lake Center
01:22PM 47.6975 -110.1569 101° East 548 631 41,000  Level Salt Lake Center
01:23PM 47.6653 -109.9317 102° East 556 640 41,000  Level Salt Lake Center
01:24PM 47.6364 -109.7083 101° East 555 639 41,000  Level Salt Lake Center
01:25PM 47.6050 -109.4828 102° East 560 644 41,000  Level Salt Lake Center
01:26PM 47.5647 -109.2144 102° East 558 642 41,000  Level Salt Lake Center
01:27PM 47.5311 -108.9922 103° East 556 640 41,000  Level Salt Lake Center
01:28PM 47.4975 -108.7697 103° East 555 639 41,000  Level Salt Lake Center
01:29PM 47.4636 -108.5472 103° East 557 641 41,000  Level Salt Lake Center
01:30PM 47.4292 -108.3256 103° East 555 639 41,000  Level Salt Lake Center
01:31PM 47.3869 -108.0639 103° East 555 639 41,000  Level Salt Lake Center
01:32PM 47.3517 -107.8414 103° East 557 641 41,000  Level Salt Lake Center
01:33PM 47.3147 -107.6192 104° East 558 642 41,000  Level Salt Lake Center
01:35PM 47.2783 -107.3961 103° East 559 643 41,000  Level Salt Lake Center
01:36PM 47.2414 -107.1750 104° East 559 643 41,000  Level Salt Lake Center
01:37PM 47.2033 -106.9517 104° East 561 646 41,000  Level Salt Lake Center
01:38PM 47.1572 -106.6811 104° East 565 650 41,000  Level Salt Lake Center
01:39PM 47.1189 -106.4625 104° East 562 647 41,000  Level Salt Lake Center
01:40PM 47.0806 -106.2478 105° East 563 648 41,000  Level Salt Lake Center
01:41PM 47.0414 -106.0283 105° East 560 644 41,000  Level Salt Lake Center
01:42PM 47.0017 -105.8075 105° East 562 647 41,000  Level Salt Lake Center
01:43PM 46.9611 -105.5872 105° East 563 648 41,000  Level Salt Lake Center
01:44PM 46.9111 -105.3219 105° East 565 650 41,000  Level Salt Lake Center
01:45PM 46.8700 -105.1019 105° East 565 650 41,000  Level Salt Lake Center
01:46PM 46.8281 -104.8819 105° East 566 651 41,000  Level Salt Lake Center
01:47PM 46.7858 -104.6639 106° East 563 648 41,000  Level Salt Lake Center
01:48PM 46.7442 -104.4464 106° East 562 647 41,000  Level Salt Lake Center
01:49PM 46.6928 -104.1856 106° East 562 647 41,000  Level Salt Lake Center
01:50PM 46.6497 -103.9683 106° East 563 648 41,000  Level Salt Lake Center
01:51PM 46.6067 -103.7489 106° East 565 650 41,000  Level Salt Lake Center
01:52PM 46.5631 -103.5303 106° East 567 652 41,000  Level Salt Lake Center
01:53PM 46.5186 -103.3119 106° East 567 652 41,000  Level Salt Lake Center
01:54PM 46.4733 -103.0942 107° East 567 652 41,000  Level Salt Lake Center
01:55PM 46.4192 -102.8350 107° East 566 651 41,000  Level Salt Lake Center
01:56PM 46.3725 -102.6172 107° East 566 651 41,000  Level Salt Lake Center
01:57PM 46.3272 -102.4014 107° East 566 651 41,000  Level Salt Lake Center
01:58PM 46.2819 -102.1839 107° East 566 651 41,000  Level Salt Lake Center
01:59PM 46.2339 -101.9686 108° East 566 651 41,000  Level Salt Lake Center
02:00PM 46.1767 -101.7119 108° East 564 649 41,000  Level Salt Lake Center
02:02PM 46.1072 -101.4178 109° East 561 646 41,000  Level Minneapolis Center
02:03PM 46.0578 -101.2017 108° East 564 649 41,000  Level Minneapolis Center
02:04PM 46.0081 -100.9867 108° East 565 650 41,000  Level Minneapolis Center
02:05PM 45.9594 -100.7725 108° East 565 650 41,000  Level Minneapolis Center
02:06PM 45.9089 -100.5575 109° East 566 651 41,000  Level Minneapolis Center
02:07PM 45.8483 -100.3014 109° East 565 650 41,000  Level Minneapolis Center
02:08PM 45.7978 -100.0847 108° East 567 652 41,000  Level Minneapolis Center
02:09PM 45.7461 -99.8703 109° East 567 652 41,000  Level Minneapolis Center
02:10PM 45.6936 -99.6569 109° East 566 651 41,000  Level Minneapolis Center
02:11PM 45.6411 -99.4417 109° East 568 654 41,000  Level Minneapolis Center
02:12PM 45.5872 -99.2300 110° East 567 652 41,000  Level Minneapolis Center
02:13PM 45.5336 -99.0156 110° East 567 652 41,000  Level Minneapolis Center
02:14PM 45.4689 -98.7603 110° East 569 655 41,000  Level Minneapolis Center
02:15PM 45.4150 -98.5497 110° East 566 651 41,000  Level Minneapolis Center
02:16PM 45.3597 -98.3392 110° East 566 651 41,000  Level Minneapolis Center
02:17PM 45.3053 -98.1292 110° East 565 650 41,000  Level Minneapolis Center
02:18PM 45.2531 -97.9339 111° Southeast 565 650 41,000  Level Minneapolis Center
02:19PM 45.1861 -97.6836 111° Southeast 566 651 41,000  Level Minneapolis Center
02:20PM 45.1314 -97.4747 110° East 566 651 41,000  Level Minneapolis Center
02:21PM 45.0742 -97.2675 111° Southeast 566 651 41,000  Level Minneapolis Center
02:23PM 45.0175 -97.0600 111° Southeast 567 652 41,000 -240 Level Minneapolis Center
02:24PM 44.9614 -96.8528 111° Southeast 565 650 40,600 -840 Descending Minneapolis Center
02:25PM 44.9036 -96.6489 112° Southeast 559 643 39,300 -1,500 Descending Minneapolis Center
02:26PM 44.8369 -96.4061 111° Southeast 553 636 37,500 -1,860 Descending Minneapolis Center
02:27PM 44.7778 -96.2011 112° Southeast 561 646 35,500 -1,980 Descending Minneapolis Center
02:28PM 44.7206 -95.9967 111° Southeast 560 644 33,500 -2,100 Descending Minneapolis Center
02:29PM 44.6617 -95.7911 112° Southeast 563 648 31,200 -2,400 Descending Minneapolis Center
02:30PM 44.6008 -95.5839 112° Southeast 569 655 28,600 -2,520 Descending Minneapolis Center
02:31PM 44.5408 -95.3789 112° Southeast 567 652 26,100 -2,400 Descending Minneapolis Center
02:32PM 44.4858 -95.1808 111° Southeast 549 632 23,600 -2,520 Descending Minneapolis Center
02:33PM 44.5069 -94.9525 83° East 496 571 20,900 -2,400 Descending Minneapolis Center
02:34PM 44.5497 -94.7803 71° East 474 545 18,700 -1,980 Descending Minneapolis Center
02:35PM 44.5844 -94.6294 72° East 463 533 16,900 -2,040 Descending Minneapolis Center
02:36PM 44.6314 -94.4283 72° East 452 520 14,500 -2,160 Descending Minneapolis Center
02:37PM 44.6683 -94.2669 72° East 438 504 12,500 -1,740 Descending Minneapolis Center
02:38PM 44.7031 -94.1156 72° East 410 472 11,000 -840 Descending Minneapolis Center
02:39PM 44.7331 -93.9797 73° East 354 407 10,800 -720 Descending Minneapolis Center
02:40PM 44.7639 -93.8733 68° East 290 334 9,600 -1,320 Descending Minneapolis Center
02:41PM 44.8189 -93.7972 44° Northeast 275 316 8,100 -1,260 Descending Minneapolis Center
02:42PM 44.8878 -93.7494 26° Northeast 226 260 7,000 -540 Descending Minneapolis Center
02:43PM 44.9489 -93.7281 14° North 227 261 7,000 -180 Level Minneapolis Center
02:44PM 44.9883 -93.6814 40° Northeast 219 252 6,700 -420 Descending Minneapolis Center
02:45PM 44.9844 -93.5972 94° East 215 247 6,200 -660 Descending Minneapolis Center
02:46PM 44.9756 -93.5164 99° East 210 242 5,400 -600 Descending Minneapolis Center
02:47PM 44.9714 -93.4381 94° East 199 229 5,000 -600 Descending Minneapolis Center
02:48PM 44.9492 -93.3806 119° Southeast 143 165 4,200 -1,020 Descending Minneapolis Center
02:49PM 44.9297 -93.3336 120° Southeast 139 160 3,000 -1,140 Descending Minneapolis Center
02:50PM 44.9114 -93.2881 120° Southeast 135 155 1,900 -960 Descending Minneapolis Center
02:51PM 44.8911 -93.2425 122° Southeast 137 158 1,100 -780 Descending Minneapolis Center
02:53PM 44.8820 -93.2218 90° East  Level Estimated
03:00PM 44.8820 -93.2218 90° East  Level Estimated